createdAt,value
2023-05-12T00:02:13.581Z,100715.19
2023-05-12T00:07:22.053Z,100717.96
2023-05-12T00:12:29.761Z,100717.23
2023-05-12T00:17:37.931Z,100713.73
2023-05-12T00:22:45.550Z,100713.48
2023-05-12T00:27:53.160Z,100715.75
2023-05-12T00:33:01.111Z,100714.89
2023-05-12T00:38:08.800Z,100721.22
2023-05-12T00:43:16.081Z,100724.76
2023-05-12T00:48:23.959Z,100723.23
2023-05-12T00:53:45.052Z,100727.83
2023-05-12T00:58:55.631Z,100728.73
2023-05-12T01:04:04.115Z,100729.27
2023-05-12T01:09:11.993Z,100736.31
2023-05-12T01:14:19.468Z,100741.60
2023-05-12T01:19:42.515Z,100739.02
2023-05-12T01:24:56.052Z,100742.00
2023-05-12T01:30:06.456Z,100747.23
2023-05-12T01:35:15.734Z,100748.79
2023-05-12T01:40:28.428Z,100756.61
2023-05-12T01:45:37.092Z,100752.85
2023-05-12T01:50:44.864Z,100758.38
2023-05-12T01:55:56.696Z,100761.27
2023-05-12T02:01:05.964Z,100765.73
2023-05-12T02:06:14.204Z,100771.06
2023-05-12T02:11:22.168Z,100772.55
2023-05-12T02:16:30.077Z,100768.77
2023-05-12T02:21:37.705Z,100770.94
2023-05-12T02:26:45.647Z,100772.91
2023-05-12T02:31:54.038Z,100782.91
2023-05-12T02:37:02.052Z,100787.15
2023-05-12T02:42:10.544Z,100789.42
2023-05-12T02:47:18.429Z,100792.54
2023-05-12T02:52:25.985Z,100793.53
2023-05-12T02:57:34.370Z,100796.41
2023-05-12T03:02:43.242Z,100798.55
2023-05-12T03:07:51.421Z,100798.75
2023-05-12T03:12:59.102Z,100802.59
2023-05-12T03:18:06.972Z,100801.20
2023-05-12T03:23:14.776Z,100800.83
2023-05-12T03:28:23.426Z,100798.48
2023-05-12T03:33:31.297Z,100795.29
2023-05-12T03:38:38.629Z,100794.51
2023-05-12T03:43:46.347Z,100801.52
2023-05-12T03:48:53.810Z,100802.73
2023-05-12T03:54:01.172Z,100807.09
2023-05-12T03:59:08.704Z,100810.33
2023-05-12T04:04:16.331Z,100818.83
2023-05-12T04:09:23.781Z,100822.23
2023-05-12T04:14:41.724Z,100826.44
2023-05-12T04:19:50.671Z,100829.79
2023-05-12T04:24:58.468Z,100828.05
2023-05-12T04:30:07.542Z,100830.60
2023-05-12T04:35:17.500Z,100824.64
2023-05-12T04:40:25.274Z,100827.80
2023-05-12T04:45:32.736Z,100829.31
2023-05-12T04:50:40.905Z,100833.91
2023-05-12T04:55:50.514Z,100835.65
2023-05-12T05:00:59.734Z,100841.14
2023-05-12T05:06:08.083Z,100841.25
2023-05-12T05:11:19.191Z,100841.53
2023-05-12T05:16:27.460Z,100845.90
2023-05-12T05:21:36.622Z,100851.32
2023-05-12T05:26:44.951Z,100853.63
2023-05-12T05:31:53.182Z,100852.70
2023-05-12T05:37:01.399Z,100856.27
2023-05-12T05:42:09.291Z,100854.17
2023-05-12T05:47:16.967Z,100847.38
2023-05-12T05:52:25.431Z,100855.42
2023-05-12T05:57:33.522Z,100856.48
2023-05-12T06:02:41.917Z,100856.81
2023-05-12T06:07:50.148Z,100865.73
2023-05-12T06:12:58.998Z,100869.31
2023-05-12T06:18:06.737Z,100871.99
2023-05-12T06:23:14.489Z,100871.06
2023-05-12T06:28:22.265Z,100870.86
2023-05-12T06:33:30.426Z,100874.13
2023-05-12T06:38:38.285Z,100871.89
2023-05-12T06:43:46.388Z,100871.05
2023-05-12T06:48:55.779Z,100876.38
2023-05-12T06:54:03.925Z,100878.48
2023-05-12T06:59:11.918Z,100881.41
2023-05-12T07:04:19.907Z,100876.42
2023-05-12T07:09:28.872Z,100872.40
2023-05-12T07:14:36.663Z,100873.75
2023-05-12T07:19:45.244Z,100874.42
2023-05-12T07:24:52.950Z,100868.58
2023-05-12T07:30:00.665Z,100869.13
2023-05-12T07:35:09.644Z,100870.50
2023-05-12T07:40:17.283Z,100868.77
2023-05-12T07:45:25.658Z,100869.89
2023-05-12T07:50:33.041Z,100868.07
2023-05-12T07:55:40.583Z,100867.05
2023-05-12T08:00:48.012Z,100863.98
2023-05-12T08:05:55.775Z,100864.24
2023-05-12T08:11:03.123Z,100862.06
2023-05-12T08:16:10.806Z,100859.17
2023-05-12T08:21:18.765Z,100859.58
2023-05-12T08:26:26.720Z,100861.30
2023-05-12T08:31:34.701Z,100865.34
2023-05-12T08:36:42.770Z,100872.02
2023-05-12T08:41:57.324Z,100866.59
2023-05-12T08:47:05.967Z,100871.03
2023-05-12T08:52:18.803Z,100871.55
2023-05-12T08:57:29.414Z,100872.98
2023-05-12T09:02:51.396Z,100865.20
2023-05-12T09:08:00.582Z,100861.09
2023-05-12T09:13:19.325Z,100866.84
2023-05-12T09:18:26.838Z,100865.88
2023-05-12T09:23:34.198Z,100852.87
2023-05-12T09:28:42.608Z,100857.47
2023-05-12T09:33:50.818Z,100853.02
2023-05-12T09:39:06.308Z,100849.14
2023-05-12T09:44:17.486Z,100846.58
2023-05-12T09:49:27.219Z,100845.56
2023-05-12T09:54:35.361Z,100847.58
2023-05-12T09:59:44.221Z,100842.85
2023-05-12T10:04:54.980Z,100841.03
2023-05-12T10:10:05.214Z,100833.86
2023-05-12T10:15:15.198Z,100827.27
2023-05-12T10:20:23.273Z,100824.58
2023-05-12T10:25:31.401Z,100831.20
2023-05-12T10:30:40.021Z,100825.75
2023-05-12T10:35:49.451Z,100830.81
2023-05-12T10:41:01.522Z,100822.50
2023-05-12T10:46:10.681Z,100821.77
2023-05-12T10:51:24.352Z,100818.78
2023-05-12T10:56:33.052Z,100812.11
2023-05-12T11:01:42.117Z,100813.41
2023-05-12T11:06:59.722Z,100804.14
2023-05-12T11:12:10.494Z,100800.98
2023-05-12T11:17:19.351Z,100806.02
2023-05-12T11:22:27.216Z,100796.98
2023-05-12T11:27:34.545Z,100800.99
2023-05-12T11:32:42.341Z,100796.36
2023-05-12T11:37:50.904Z,100791.97
2023-05-12T11:43:00.681Z,100790.77
2023-05-12T11:48:13.200Z,100789.91
2023-05-12T11:53:22.159Z,100789.28
2023-05-12T11:58:31.001Z,100786.95
2023-05-12T12:03:49.572Z,100779.14
2023-05-12T12:08:58.691Z,100783.85
2023-05-12T12:14:06.345Z,100790.31
2023-05-12T12:19:14.149Z,100793.83
2023-05-12T12:24:21.775Z,100790.48
2023-05-12T12:29:29.034Z,100781.80
2023-05-12T12:34:36.703Z,100780.30
2023-05-12T12:39:44.112Z,100777.20
2023-05-12T12:44:51.942Z,100769.61
2023-05-12T12:50:00.056Z,100764.73
2023-05-12T12:55:08.758Z,100765.14
2023-05-12T13:00:17.945Z,100762.90
2023-05-12T13:05:25.327Z,100753.88
2023-05-12T13:10:33.022Z,100755.73
2023-05-12T13:15:40.518Z,100753.04
2023-05-12T13:20:48.139Z,100741.06
2023-05-12T13:25:55.580Z,100737.38
2023-05-12T13:31:03.347Z,100737.32
2023-05-12T13:36:11.527Z,100731.80
2023-05-12T13:41:19.400Z,100727.93
2023-05-12T13:46:27.416Z,100728.17
2023-05-12T13:51:37.381Z,100725.40
2023-05-12T13:56:45.074Z,100723.16
2023-05-12T14:01:52.694Z,100729.13
2023-05-12T14:07:00.491Z,100720.05
2023-05-12T14:12:09.672Z,100716.63
2023-05-12T14:17:17.421Z,100714.86
2023-05-12T14:22:26.312Z,100713.05
2023-05-12T14:27:34.328Z,100713.33
2023-05-12T14:32:42.123Z,100716.11
2023-05-12T14:37:49.599Z,100718.23
2023-05-12T14:42:57.903Z,100716.88
2023-05-12T14:48:06.111Z,100713.27
2023-05-12T14:53:15.002Z,100712.06
2023-05-12T14:58:24.578Z,100711.22
2023-05-12T15:03:34.146Z,100706.06
2023-05-12T15:08:41.811Z,100706.70
2023-05-12T15:13:49.594Z,100704.43
2023-05-12T15:18:57.202Z,100698.88
2023-05-12T15:24:05.528Z,100702.48
2023-05-12T15:29:17.071Z,100701.65
2023-05-12T15:34:24.592Z,100692.52
2023-05-12T15:39:32.342Z,100691.73
2023-05-12T15:44:40.545Z,100691.52
2023-05-12T15:49:50.777Z,100687.84
2023-05-12T15:54:59.595Z,100685.64
2023-05-12T16:00:08.443Z,100682.05
2023-05-12T16:05:22.365Z,100682.58
2023-05-12T16:10:31.352Z,100681.19
2023-05-12T16:15:39.100Z,100673.99
2023-05-12T16:20:48.185Z,100678.67
2023-05-12T16:25:55.579Z,100677.48
2023-05-12T16:31:03.070Z,100679.90
2023-05-12T16:36:11.813Z,100679.18
2023-05-12T16:41:19.290Z,100680.55
2023-05-12T16:46:27.816Z,100676.23
2023-05-12T16:51:36.049Z,100676.06
2023-05-12T16:56:43.819Z,100673.67
2023-05-12T17:01:51.759Z,100677.17
2023-05-12T17:06:59.645Z,100682.86
2023-05-12T17:12:09.043Z,100684.88
2023-05-12T17:17:17.262Z,100689.13
2023-05-12T17:22:25.294Z,100688.56
2023-05-12T17:27:33.612Z,100692.09
2023-05-12T17:32:41.877Z,100690.98
2023-05-12T17:37:53.387Z,100693.11
2023-05-12T17:43:00.744Z,100693.75
2023-05-12T17:48:08.666Z,100696.11
2023-05-12T17:53:17.658Z,100696.56
2023-05-12T17:58:26.151Z,100696.70
2023-05-12T18:03:34.154Z,100699.89
2023-05-12T18:08:41.550Z,100704.40
2023-05-12T18:13:51.566Z,100712.89
2023-05-12T18:18:59.159Z,100716.98
2023-05-12T18:24:08.227Z,100721.09
2023-05-12T18:29:15.782Z,100724.85
2023-05-12T18:34:24.024Z,100730.17
2023-05-12T18:39:32.285Z,100734.11
2023-05-12T18:44:41.616Z,100735.05
2023-05-12T18:49:49.782Z,100736.69
2023-05-12T18:54:58.307Z,100743.39
2023-05-12T19:00:06.992Z,100752.46
2023-05-12T19:05:15.720Z,100755.52
2023-05-12T19:10:23.831Z,100753.20
2023-05-12T19:15:31.506Z,100751.80
2023-05-12T19:20:40.472Z,100751.95
2023-05-12T19:25:50.758Z,100759.55
2023-05-12T19:30:58.668Z,100759.28
2023-05-12T19:36:06.550Z,100763.21
2023-05-12T19:41:14.219Z,100764.55
2023-05-12T19:46:22.018Z,100762.98
2023-05-12T19:51:33.965Z,100764.18
2023-05-12T19:56:41.263Z,100764.28
2023-05-12T20:01:49.734Z,100770.08
2023-05-12T20:06:57.799Z,100776.60
2023-05-12T20:12:08.242Z,100781.31
2023-05-12T20:17:17.121Z,100783.29
2023-05-12T20:22:24.729Z,100780.89
2023-05-12T20:27:32.209Z,100784.00
2023-05-12T20:32:39.723Z,100787.11
2023-05-12T20:37:47.337Z,100784.20
2023-05-12T20:42:55.093Z,100778.95
2023-05-12T20:48:02.599Z,100769.70
2023-05-12T20:53:10.628Z,100777.89
2023-05-12T20:58:17.965Z,100779.27
2023-05-12T21:03:27.088Z,100776.02
2023-05-12T21:08:34.521Z,100779.81
2023-05-12T21:13:41.836Z,100782.37
2023-05-12T21:18:49.302Z,100786.45
2023-05-12T21:23:56.923Z,100793.14
2023-05-12T21:29:04.404Z,100792.80
2023-05-12T21:34:11.876Z,100793.69
2023-05-12T21:39:19.394Z,100797.55
2023-05-12T21:44:26.654Z,100798.91
2023-05-12T21:49:34.068Z,100802.04
2023-05-12T21:54:41.941Z,100800.79
2023-05-12T21:59:49.969Z,100800.36
2023-05-12T22:04:57.569Z,100802.94
2023-05-12T22:10:05.422Z,100803.02
2023-05-12T22:15:13.788Z,100801.86
2023-05-12T22:20:23.579Z,100799.84
2023-05-12T22:25:31.522Z,100803.95
2023-05-12T22:30:38.879Z,100809.26
2023-05-12T22:35:46.729Z,100806.83
2023-05-12T22:40:54.476Z,100805.97
2023-05-12T22:46:01.822Z,100807.71
2023-05-12T22:51:09.204Z,100800.52
2023-05-12T22:56:17.347Z,100796.16
2023-05-12T23:01:25.458Z,100796.48
2023-05-12T23:06:33.128Z,100795.41
2023-05-12T23:11:40.405Z,100799.09
2023-05-12T23:16:48.431Z,100799.60
2023-05-12T23:21:55.898Z,100799.77
2023-05-12T23:27:03.907Z,100799.90
2023-05-12T23:32:12.006Z,100799.16
2023-05-12T23:37:20.213Z,100799.81
2023-05-12T23:42:28.012Z,100798.52
2023-05-12T23:47:35.524Z,100795.13
2023-05-12T23:52:42.803Z,100795.41
2023-05-12T23:57:50.528Z,100795.16
